To NAV CANADA Home Page Login to a new session Search on AWWS site Feedback and Comments Disclaimer Vers la page française équivalente Tips FAQ What's new on the site To the Forecasts and Observations / NOTAM section To "File a Flight Plan" website Publications and other links Update of the User's profile FIC Telephone Numbers My Weather Data Folder Route Weather Data Regional Weather Data Local Weather Data To the Forecasts and Observations / NOTAM section
Request Generated 02/28/2015 at 01:54:47 UTC . Weather information available at that time is displayed.

METAR/TAF

TRENTON/ON    

METAR CYTR 280100Z 30005KT 15SM FEW250 M13/M21 A3055 RMK CI0 SLP354=
METAR CYTR 280000Z 30005KT 15SM FEW250 M12/M20 A3053 RMK CI1 SLP349=
METAR CYTR 272300Z 28008KT 15SM FEW030 M11/M20 A3052 RMK SC2 SLP342=

TAF CYTR 272330Z 2800/2824 27008KT P6SM FEW030
FM281800 24012KT P6SM SCT030 TEMPO 2818/2824 BKN030
RMK NXT FCST BY 280600Z=
Your time UTC time
Weather data provided by Environment Canada and NAV CANADA